sensor_id;sensor_type;location;lat;lon;timestamp;pressure;altitude;pressure_sealevel;temperature
37452;BMP280;23314;51.114;6.900;2023-08-17T00:01:59;101505.53;;;20.05
37452;BMP280;23314;51.114;6.900;2023-08-17T00:04:25;101511.84;;;20.02
37452;BMP280;23314;51.114;6.900;2023-08-17T00:06:51;101520.13;;;19.99
37452;BMP280;23314;51.114;6.900;2023-08-17T00:09:16;101525.22;;;19.97
37452;BMP280;23314;51.114;6.900;2023-08-17T00:11:41;101522.69;;;19.93
37452;BMP280;23314;51.114;6.900;2023-08-17T00:14:07;101527.50;;;19.89
37452;BMP280;23314;51.114;6.900;2023-08-17T00:16:32;101520.72;;;19.84
37452;BMP280;23314;51.114;6.900;2023-08-17T00:18:57;101528.25;;;19.80
37452;BMP280;23314;51.114;6.900;2023-08-17T00:21:23;101516.38;;;19.77
37452;BMP280;23314;51.114;6.900;2023-08-17T00:23:48;101515.78;;;19.73
37452;BMP280;23314;51.114;6.900;2023-08-17T00:26:15;101520.44;;;19.73
37452;BMP280;23314;51.114;6.900;2023-08-17T00:28:40;101520.63;;;19.69
37452;BMP280;23314;51.114;6.900;2023-08-17T00:31:06;101521.81;;;19.68
37452;BMP280;23314;51.114;6.900;2023-08-17T00:33:31;101523.41;;;19.66
37452;BMP280;23314;51.114;6.900;2023-08-17T00:35:57;101526.91;;;19.66
37452;BMP280;23314;51.114;6.900;2023-08-17T00:38:22;101523.91;;;19.64
37452;BMP280;23314;51.114;6.900;2023-08-17T00:40:47;101523.13;;;19.64
37452;BMP280;23314;51.114;6.900;2023-08-17T00:43:13;101517.88;;;19.60
37452;BMP280;23314;51.114;6.900;2023-08-17T00:45:38;101526.44;;;19.58
37452;BMP280;23314;51.114;6.900;2023-08-17T00:48:05;101526.44;;;19.58
37452;BMP280;23314;51.114;6.900;2023-08-17T00:50:33;101540.41;;;19.57
37452;BMP280;23314;51.114;6.900;2023-08-17T00:52:59;101531.84;;;19.58
37452;BMP280;23314;51.114;6.900;2023-08-17T00:55:25;101526.88;;;19.57
37452;BMP280;23314;51.114;6.900;2023-08-17T00:57:51;101518.00;;;19.56
37452;BMP280;23314;51.114;6.900;2023-08-17T01:00:18;101516.53;;;19.55
37452;BMP280;23314;51.114;6.900;2023-08-17T01:02:44;101518.16;;;19.53
37452;BMP280;23314;51.114;6.900;2023-08-17T01:05:09;101521.31;;;19.51
37452;BMP280;23314;51.114;6.900;2023-08-17T01:07:35;101521.75;;;19.50
37452;BMP280;23314;51.114;6.900;2023-08-17T01:10:01;101522.22;;;19.48
37452;BMP280;23314;51.114;6.900;2023-08-17T01:12:42;101520.69;;;19.47
37452;BMP280;23314;51.114;6.900;2023-08-17T01:15:15;101513.06;;;19.46
37452;BMP280;23314;51.114;6.900;2023-08-17T01:17:54;101508.84;;;19.45
37452;BMP280;23314;51.114;6.900;2023-08-17T01:20:22;101503.84;;;19.43
37452;BMP280;23314;51.114;6.900;2023-08-17T01:22:49;101505.22;;;19.38
37452;BMP280;23314;51.114;6.900;2023-08-17T01:25:15;101502.63;;;19.35
37452;BMP280;23314;51.114;6.900;2023-08-17T01:27:42;101508.97;;;19.32
37452;BMP280;23314;51.114;6.900;2023-08-17T01:30:09;101504.16;;;19.26
37452;BMP280;23314;51.114;6.900;2023-08-17T01:32:51;101494.22;;;19.23
37452;BMP280;23314;51.114;6.900;2023-08-17T01:35:30;101497.63;;;19.24
37452;BMP280;23314;51.114;6.900;2023-08-17T01:38:02;101495.25;;;19.26
37452;BMP280;23314;51.114;6.900;2023-08-17T01:40:31;101504.75;;;19.31
37452;BMP280;23314;51.114;6.900;2023-08-17T01:42:58;101499.19;;;19.34
37452;BMP280;23314;51.114;6.900;2023-08-17T01:45:24;101501.31;;;19.39
37452;BMP280;23314;51.114;6.900;2023-08-17T01:47:50;101499.22;;;19.43
37452;BMP280;23314;51.114;6.900;2023-08-17T01:50:15;101501.75;;;19.47
37452;BMP280;23314;51.114;6.900;2023-08-17T01:52:41;101500.88;;;19.50
37452;BMP280;23314;51.114;6.900;2023-08-17T01:55:06;101506.44;;;19.56
37452;BMP280;23314;51.114;6.900;2023-08-17T01:57:32;101501.47;;;19.64
37452;BMP280;23314;51.114;6.900;2023-08-17T01:59:57;101508.53;;;19.70
37452;BMP280;23314;51.114;6.900;2023-08-17T02:02:22;101504.50;;;19.75
37452;BMP280;23314;51.114;6.900;2023-08-17T02:04:48;101490.34;;;19.80
37452;BMP280;23314;51.114;6.900;2023-08-17T02:07:14;101494.41;;;19.85
37452;BMP280;23314;51.114;6.900;2023-08-17T02:09:39;101489.31;;;19.87
37452;BMP280;23314;51.114;6.900;2023-08-17T02:12:05;101490.19;;;19.93
37452;BMP280;23314;51.114;6.900;2023-08-17T02:14:30;101490.78;;;19.97
37452;BMP280;23314;51.114;6.900;2023-08-17T02:16:55;101493.66;;;20.03
37452;BMP280;23314;51.114;6.900;2023-08-17T02:19:21;101493.31;;;20.10
37452;BMP280;23314;51.114;6.900;2023-08-17T02:21:46;101491.06;;;20.18
37452;BMP280;23314;51.114;6.900;2023-08-17T02:24:11;101491.94;;;20.24
37452;BMP280;23314;51.114;6.900;2023-08-17T02:26:37;101488.63;;;20.29
37452;BMP280;23314;51.114;6.900;2023-08-17T02:29:03;101481.81;;;20.34
37452;BMP280;23314;51.114;6.900;2023-08-17T02:31:29;101484.69;;;20.39
37452;BMP280;23314;51.114;6.900;2023-08-17T02:33:54;101483.31;;;20.44
37452;BMP280;23314;51.114;6.900;2023-08-17T02:36:23;101484.81;;;20.45
37452;BMP280;23314;51.114;6.900;2023-08-17T02:38:48;101485.84;;;20.47
37452;BMP280;23314;51.114;6.900;2023-08-17T02:41:14;101479.22;;;20.49
37452;BMP280;23314;51.114;6.900;2023-08-17T02:43:39;101480.00;;;20.49
37452;BMP280;23314;51.114;6.900;2023-08-17T02:46:04;101479.22;;;20.49
37452;BMP280;23314;51.114;6.900;2023-08-17T02:48:33;101472.00;;;20.45
37452;BMP280;23314;51.114;6.900;2023-08-17T02:50:58;101469.78;;;20.44
37452;BMP280;23314;51.114;6.900;2023-08-17T02:53:23;101470.19;;;20.42
37452;BMP280;23314;51.114;6.900;2023-08-17T02:55:48;101474.88;;;20.42
37452;BMP280;23314;51.114;6.900;2023-08-17T02:58:14;101469.34;;;20.36
37452;BMP280;23314;51.114;6.900;2023-08-17T03:00:39;101462.13;;;20.33
37452;BMP280;23314;51.114;6.900;2023-08-17T03:03:04;101464.53;;;20.31
37452;BMP280;23314;51.114;6.900;2023-08-17T03:05:30;101470.41;;;20.29
37452;BMP280;23314;51.114;6.900;2023-08-17T03:07:55;101465.16;;;20.26
37452;BMP280;23314;51.114;6.900;2023-08-17T03:10:22;101479.16;;;20.24
37452;BMP280;23314;51.114;6.900;2023-08-17T03:12:48;101476.91;;;20.23
37452;BMP280;23314;51.114;6.900;2023-08-17T03:15:13;101476.28;;;20.19
37452;BMP280;23314;51.114;6.900;2023-08-17T03:17:38;101466.84;;;20.14
37452;BMP280;23314;51.114;6.900;2023-08-17T03:20:04;101466.22;;;20.10
37452;BMP280;23314;51.114;6.900;2023-08-17T03:22:35;101469.84;;;20.07
37452;BMP280;23314;51.114;6.900;2023-08-17T03:25:00;101470.47;;;20.02
37452;BMP280;23314;51.114;6.900;2023-08-17T03:27:26;101468.38;;;19.97
37452;BMP280;23314;51.114;6.900;2023-08-17T03:29:51;101465.22;;;19.89
37452;BMP280;23314;51.114;6.900;2023-08-17T03:32:17;101467.03;;;19.83
37452;BMP280;23314;51.114;6.900;2023-08-17T03:34:42;101468.53;;;19.74
37452;BMP280;23314;51.114;6.900;2023-08-17T03:37:07;101469.88;;;19.70
37452;BMP280;23314;51.114;6.900;2023-08-17T03:39:33;101469.44;;;19.62
37452;BMP280;23314;51.114;6.900;2023-08-17T03:41:58;101465.09;;;19.55
37452;BMP280;23314;51.114;6.900;2023-08-17T03:44:23;101474.69;;;19.47
37452;BMP280;23314;51.114;6.900;2023-08-17T03:46:49;101471.09;;;19.41
37452;BMP280;23314;51.114;6.900;2023-08-17T03:49:14;101477.53;;;19.34
37452;BMP280;23314;51.114;6.900;2023-08-17T03:51:39;101477.38;;;19.29
37452;BMP280;23314;51.114;6.900;2023-08-17T03:54:05;101474.53;;;19.23
37452;BMP280;23314;51.114;6.900;2023-08-17T03:56:30;101482.34;;;19.21
37452;BMP280;23314;51.114;6.900;2023-08-17T03:58:55;101485.19;;;19.17
37452;BMP280;23314;51.114;6.900;2023-08-17T04:01:21;101476.75;;;19.15
37452;BMP280;23314;51.114;6.900;2023-08-17T04:03:46;101482.16;;;19.15
37452;BMP280;23314;51.114;6.900;2023-08-17T04:06:11;101488.31;;;19.16
37452;BMP280;23314;51.114;6.900;2023-08-17T04:08:37;101486.06;;;19.14
37452;BMP280;23314;51.114;6.900;2023-08-17T04:11:03;101492.53;;;19.17
37452;BMP280;23314;51.114;6.900;2023-08-17T04:13:28;101485.47;;;19.19
37452;BMP280;23314;51.114;6.900;2023-08-17T04:15:54;101489.69;;;19.20
37452;BMP280;23314;51.114;6.900;2023-08-17T04:18:19;101493.44;;;19.23
37452;BMP280;23314;51.114;6.900;2023-08-17T04:20:44;101494.22;;;19.23
37452;BMP280;23314;51.114;6.900;2023-08-17T04:23:10;101505.34;;;19.25
37452;BMP280;23314;51.114;6.900;2023-08-17T04:25:35;101501.84;;;19.25
37452;BMP280;23314;51.114;6.900;2023-08-17T04:28:01;101507.13;;;19.29
37452;BMP280;23314;51.114;6.900;2023-08-17T04:30:26;101507.47;;;19.31
37452;BMP280;23314;51.114;6.900;2023-08-17T04:32:51;101509.22;;;19.34
37452;BMP280;23314;51.114;6.900;2023-08-17T04:35:20;101516.16;;;19.35
37452;BMP280;23314;51.114;6.900;2023-08-17T04:37:46;101516.94;;;19.35
37452;BMP280;23314;51.114;6.900;2023-08-17T04:40:13;101516.78;;;19.39
37452;BMP280;23314;51.114;6.900;2023-08-17T04:42:39;101515.91;;;19.42
37452;BMP280;23314;51.114;6.900;2023-08-17T04:45:04;101513.06;;;19.46
37452;BMP280;23314;51.114;6.900;2023-08-17T04:47:30;101516.03;;;19.48
37452;BMP280;23314;51.114;6.900;2023-08-17T04:49:55;101518.59;;;19.51
37452;BMP280;23314;51.114;6.900;2023-08-17T04:52:21;101521.47;;;19.57
37452;BMP280;23314;51.114;6.900;2023-08-17T04:54:46;101520.44;;;19.64
37452;BMP280;23314;51.114;6.900;2023-08-17T04:57:11;101521.81;;;19.68
37452;BMP280;23314;51.114;6.900;2023-08-17T04:59:37;101529.75;;;19.72
37452;BMP280;23314;51.114;6.900;2023-08-17T05:02:02;101531.09;;;19.76
37452;BMP280;23314;51.114;6.900;2023-08-17T05:04:30;101532.75;;;19.83
37452;BMP280;23314;51.114;6.900;2023-08-17T05:06:56;101536.97;;;19.84
37452;BMP280;23314;51.114;6.900;2023-08-17T05:09:21;101537.28;;;19.86
37452;BMP280;23314;51.114;6.900;2023-08-17T05:11:46;101534.44;;;19.90
37452;BMP280;23314;51.114;6.900;2023-08-17T05:14:12;101534.75;;;19.92
37452;BMP280;23314;51.114;6.900;2023-08-17T05:16:37;101531.28;;;19.91
37452;BMP280;23314;51.114;6.900;2023-08-17T05:19:03;101521.03;;;19.95
37452;BMP280;23314;51.114;6.900;2023-08-17T05:21:28;101525.09;;;20.00
37452;BMP280;23314;51.114;6.900;2023-08-17T05:23:55;101532.31;;;20.03
37452;BMP280;23314;51.114;6.900;2023-08-17T05:26:20;101530.94;;;20.08
37452;BMP280;23314;51.114;6.900;2023-08-17T05:28:45;101528.41;;;20.14
37452;BMP280;23314;51.114;6.900;2023-08-17T05:31:11;101530.94;;;20.17
37452;BMP280;23314;51.114;6.900;2023-08-17T05:33:36;101533.50;;;20.21
37452;BMP280;23314;51.114;6.900;2023-08-17T05:36:01;101531.97;;;20.20
37452;BMP280;23314;51.114;6.900;2023-08-17T05:38:27;101544.19;;;20.24
37452;BMP280;23314;51.114;6.900;2023-08-17T05:40:56;101540.88;;;20.29
37452;BMP280;23314;51.114;6.900;2023-08-17T05:43:22;101538.72;;;20.34
37452;BMP280;23314;51.114;6.900;2023-08-17T05:45:47;101531.97;;;20.38
37452;BMP280;23314;51.114;6.900;2023-08-17T05:48:12;101535.69;;;20.41
37452;BMP280;23314;51.114;6.900;2023-08-17T05:50:43;101536.47;;;20.41
37452;BMP280;23314;51.114;6.900;2023-08-17T05:53:09;101541.56;;;20.49
37452;BMP280;23314;51.114;6.900;2023-08-17T05:55:34;101540.94;;;20.54
37452;BMP280;23314;51.114;6.900;2023-08-17T05:57:59;101543.34;;;20.61
37452;BMP280;23314;51.114;6.900;2023-08-17T06:00:25;101536.56;;;20.66
37452;BMP280;23314;51.114;6.900;2023-08-17T06:02:51;101535.78;;;20.74
37452;BMP280;23314;51.114;6.900;2023-08-17T06:05:19;101540.84;;;20.81
37452;BMP280;23314;51.114;6.900;2023-08-17T06:07:44;101539.75;;;20.88
37452;BMP280;23314;51.114;6.900;2023-08-17T06:10:10;101540.66;;;20.94
37452;BMP280;23314;51.114;6.900;2023-08-17T06:12:36;101544.25;;;21.01
37452;BMP280;23314;51.114;6.900;2023-08-17T06:15:02;101533.97;;;21.05
37452;BMP280;23314;51.114;6.900;2023-08-17T06:17:28;101546.47;;;21.11
37452;BMP280;23314;51.114;6.900;2023-08-17T06:19:53;101536.75;;;21.20
37452;BMP280;23314;51.114;6.900;2023-08-17T06:22:19;101533.41;;;21.25
37452;BMP280;23314;51.114;6.900;2023-08-17T06:24:44;101536.97;;;21.31
37452;BMP280;23314;51.114;6.900;2023-08-17T06:27:13;101546.84;;;21.43
37452;BMP280;23314;51.114;6.900;2023-08-17T06:29:39;101538.56;;;21.47
37452;BMP280;23314;51.114;6.900;2023-08-17T06:32:04;101547.84;;;21.55
37452;BMP280;23314;51.114;6.900;2023-08-17T06:34:30;101547.94;;;21.61
37452;BMP280;23314;51.114;6.900;2023-08-17T06:36:59;101546.97;;;21.64
37452;BMP280;23314;51.114;6.900;2023-08-17T06:39:25;101555.13;;;21.64
37452;BMP280;23314;51.114;6.900;2023-08-17T06:41:50;101550.28;;;21.68
37452;BMP280;23314;51.114;6.900;2023-08-17T06:44:16;101552.66;;;21.75
37452;BMP280;23314;51.114;6.900;2023-08-17T06:46:41;101553.22;;;21.79
37452;BMP280;23314;51.114;6.900;2023-08-17T06:49:06;101549.84;;;21.84
37452;BMP280;23314;51.114;6.900;2023-08-17T06:51:33;101546.31;;;21.93
37452;BMP280;23314;51.114;6.900;2023-08-17T06:53:59;101543.97;;;22.01
37452;BMP280;23314;51.114;6.900;2023-08-17T06:56:25;101546.41;;;22.14
37452;BMP280;23314;51.114;6.900;2023-08-17T06:58:50;101545.50;;;22.32
37452;BMP280;23314;51.114;6.900;2023-08-17T07:01:15;101554.38;;;22.32
37452;BMP280;23314;51.114;6.900;2023-08-17T07:03:41;101550.72;;;22.35
37452;BMP280;23314;51.114;6.900;2023-08-17T07:06:07;101550.53;;;22.39
37452;BMP280;23314;51.114;6.900;2023-08-17T07:08:33;101554.00;;;22.39
37452;BMP280;23314;51.114;6.900;2023-08-17T07:10:58;101556.31;;;22.47
37452;BMP280;23314;51.114;6.900;2023-08-17T07:13:23;101566.25;;;22.50
37452;BMP280;23314;51.114;6.900;2023-08-17T07:15:49;101557.81;;;22.48
37452;BMP280;23314;51.114;6.900;2023-08-17T07:18:14;101556.22;;;22.41
37452;BMP280;23314;51.114;6.900;2023-08-17T07:20:39;101555.41;;;22.35
37452;BMP280;23314;51.114;6.900;2023-08-17T07:23:05;101557.66;;;22.36
37452;BMP280;23314;51.114;6.900;2023-08-17T07:25:30;101553.16;;;22.33
37452;BMP280;23314;51.114;6.900;2023-08-17T07:27:56;101566.16;;;22.29
37452;BMP280;23314;51.114;6.900;2023-08-17T07:30:21;101557.28;;;22.29
37452;BMP280;23314;51.114;6.900;2023-08-17T07:32:46;101566.47;;;22.31
37452;BMP280;23314;51.114;6.900;2023-08-17T07:35:12;101569.25;;;22.37
37452;BMP280;23314;51.114;6.900;2023-08-17T07:37:37;101571.97;;;22.37
37452;BMP280;23314;51.114;6.900;2023-08-17T07:40:03;101573.97;;;22.36
37452;BMP280;23314;51.114;6.900;2023-08-17T07:42:28;101576.97;;;22.38
37452;BMP280;23314;51.114;6.900;2023-08-17T07:44:54;101574.53;;;22.41
37452;BMP280;23314;51.114;6.900;2023-08-17T07:47:19;101572.84;;;22.43
37452;BMP280;23314;51.114;6.900;2023-08-17T07:49:45;101578.47;;;22.54
37452;BMP280;23314;51.114;6.900;2023-08-17T07:52:10;101583.50;;;22.62
37452;BMP280;23314;51.114;6.900;2023-08-17T07:54:35;101580.19;;;22.72
37452;BMP280;23314;51.114;6.900;2023-08-17T07:57:01;101580.09;;;22.82
37452;BMP280;23314;51.114;6.900;2023-08-17T07:59:28;101579.22;;;22.90
37452;BMP280;23314;51.114;6.900;2023-08-17T08:01:53;101580.34;;;22.99
37452;BMP280;23314;51.114;6.900;2023-08-17T08:04:19;101578.22;;;23.08
37452;BMP280;23314;51.114;6.900;2023-08-17T08:06:44;101577.06;;;23.15
37452;BMP280;23314;51.114;6.900;2023-08-17T08:09:09;101575.00;;;23.31
37452;BMP280;23314;51.114;6.900;2023-08-17T08:11:34;101574.22;;;23.45
37452;BMP280;23314;51.114;6.900;2023-08-17T08:14:00;101579.66;;;23.45
37452;BMP280;23314;51.114;6.900;2023-08-17T08:16:26;101582.44;;;23.51
37452;BMP280;23314;51.114;6.900;2023-08-17T08:18:51;101589.09;;;23.50
37452;BMP280;23314;51.114;6.900;2023-08-17T08:21:17;101594.09;;;23.51
37452;BMP280;23314;51.114;6.900;2023-08-17T08:23:42;101590.56;;;23.45
37452;BMP280;23314;51.114;6.900;2023-08-17T08:26:07;101593.47;;;23.41
37452;BMP280;23314;51.114;6.900;2023-08-17T08:28:33;101595.38;;;23.35
37452;BMP280;23314;51.114;6.900;2023-08-17T08:31:02;101585.22;;;23.36
37452;BMP280;23314;51.114;6.900;2023-08-17T08:33:28;101593.28;;;23.45
37452;BMP280;23314;51.114;6.900;2023-08-17T08:35:53;101587.06;;;23.44
37452;BMP280;23314;51.114;6.900;2023-08-17T08:38:19;101585.22;;;23.56
37452;BMP280;23314;51.114;6.900;2023-08-17T08:40:47;101578.81;;;23.59
37452;BMP280;23314;51.114;6.900;2023-08-17T08:43:12;101578.75;;;23.54
37452;BMP280;23314;51.114;6.900;2023-08-17T08:45:38;101582.72;;;23.53
37452;BMP280;23314;51.114;6.900;2023-08-17T08:48:10;101581.63;;;23.44
37452;BMP280;23314;51.114;6.900;2023-08-17T08:50:39;101576.88;;;23.39
37452;BMP280;23314;51.114;6.900;2023-08-17T08:53:10;101570.72;;;23.44
37452;BMP280;23314;51.114;6.900;2023-08-17T08:55:44;101566.50;;;23.64
37452;BMP280;23314;51.114;6.900;2023-08-17T08:58:10;101572.25;;;23.72
37452;BMP280;23314;51.114;6.900;2023-08-17T09:00:36;101576.78;;;23.75
37452;BMP280;23314;51.114;6.900;2023-08-17T09:03:02;101576.25;;;23.76
37452;BMP280;23314;51.114;6.900;2023-08-17T09:05:31;101569.63;;;23.83
37452;BMP280;23314;51.114;6.900;2023-08-17T09:07:57;101561.66;;;24.06
37452;BMP280;23314;51.114;6.900;2023-08-17T09:10:23;101560.34;;;24.27
37452;BMP280;23314;51.114;6.900;2023-08-17T09:12:48;101557.41;;;24.31
37452;BMP280;23314;51.114;6.900;2023-08-17T09:15:13;101559.50;;;24.47
37452;BMP280;23314;51.114;6.900;2023-08-17T09:17:39;101565.50;;;24.57
37452;BMP280;23314;51.114;6.900;2023-08-17T09:20:05;101568.91;;;24.46
37452;BMP280;23314;51.114;6.900;2023-08-17T09:22:40;101569.34;;;24.39
37452;BMP280;23314;51.114;6.900;2023-08-17T09:25:07;101566.44;;;24.48
37452;BMP280;23314;51.114;6.900;2023-08-17T09:27:33;101560.13;;;24.68
37452;BMP280;23314;51.114;6.900;2023-08-17T09:30:07;101563.94;;;24.94
37452;BMP280;23314;51.114;6.900;2023-08-17T09:32:33;101561.03;;;25.09
37452;BMP280;23314;51.114;6.900;2023-08-17T09:35:05;101558.84;;;25.24
37452;BMP280;23314;51.114;6.900;2023-08-17T09:37:32;101556.63;;;25.34
37452;BMP280;23314;51.114;6.900;2023-08-17T09:39:58;101552.69;;;25.35
37452;BMP280;23314;51.114;6.900;2023-08-17T09:42:23;101549.72;;;25.38
37452;BMP280;23314;51.114;6.900;2023-08-17T09:44:54;101548.97;;;25.38
37452;BMP280;23314;51.114;6.900;2023-08-17T09:47:21;101539.78;;;25.41
37452;BMP280;23314;51.114;6.900;2023-08-17T09:49:51;101533.56;;;25.57
37452;BMP280;23314;51.114;6.900;2023-08-17T09:52:18;101544.53;;;25.69
37452;BMP280;23314;51.114;6.900;2023-08-17T09:54:45;101543.06;;;25.79
37452;BMP280;23314;51.114;6.900;2023-08-17T09:57:12;101545.53;;;25.94
37452;BMP280;23314;51.114;6.900;2023-08-17T09:59:37;101538.31;;;25.85
37452;BMP280;23314;51.114;6.900;2023-08-17T10:02:03;101537.56;;;25.68
37452;BMP280;23314;51.114;6.900;2023-08-17T10:04:35;101537.81;;;25.47
37452;BMP280;23314;51.114;6.900;2023-08-17T10:07:03;101537.81;;;25.41
37452;BMP280;23314;51.114;6.900;2023-08-17T10:09:31;101538.25;;;25.29
37452;BMP280;23314;51.114;6.900;2023-08-17T10:12:02;101537.50;;;25.17
37452;BMP280;23314;51.114;6.900;2023-08-17T10:14:35;101545.91;;;25.13
37452;BMP280;23314;51.114;6.900;2023-08-17T10:17:07;101541.41;;;25.04
37452;BMP280;23314;51.114;6.900;2023-08-17T10:19:49;101541.13;;;24.91
37452;BMP280;23314;51.114;6.900;2023-08-17T10:22:31;101540.03;;;24.72
37452;BMP280;23314;51.114;6.900;2023-08-17T10:25:00;101537.56;;;24.74
37452;BMP280;23314;51.114;6.900;2023-08-17T10:27:26;101537.81;;;24.76
37452;BMP280;23314;51.114;6.900;2023-08-17T10:29:52;101529.97;;;24.95
37452;BMP280;23314;51.114;6.900;2023-08-17T10:32:18;101527.56;;;25.25
37452;BMP280;23314;51.114;6.900;2023-08-17T10:34:44;101536.78;;;25.33
37452;BMP280;23314;51.114;6.900;2023-08-17T10:37:10;101539.78;;;25.41
37452;BMP280;23314;51.114;6.900;2023-08-17T10:39:36;101545.47;;;25.32
37452;BMP280;23314;51.114;6.900;2023-08-17T10:42:04;101545.44;;;25.20
37452;BMP280;23314;51.114;6.900;2023-08-17T10:44:38;101552.84;;;25.14
37452;BMP280;23314;51.114;6.900;2023-08-17T10:47:25;101550.38;;;25.16
37452;BMP280;23314;51.114;6.900;2023-08-17T10:49:57;101551.41;;;25.19
37452;BMP280;23314;51.114;6.900;2023-08-17T10:52:30;101543.44;;;25.21
37452;BMP280;23314;51.114;6.900;2023-08-17T10:54:56;101547.66;;;25.22
37452;BMP280;23314;51.114;6.900;2023-08-17T10:57:39;101545.19;;;25.18
37452;BMP280;23314;51.114;6.900;2023-08-17T11:00:21;101549.41;;;25.25
37452;BMP280;23314;51.114;6.900;2023-08-17T11:02:59;101545.44;;;25.20
37452;BMP280;23314;51.114;6.900;2023-08-17T11:05:45;101539.25;;;25.26
37452;BMP280;23314;51.114;6.900;2023-08-17T11:08:41;101536.53;;;25.37
37452;BMP280;23314;51.114;6.900;2023-08-17T11:11:16;101538.78;;;25.44
37452;BMP280;23314;51.114;6.900;2023-08-17T11:13:43;101534.31;;;25.41
37452;BMP280;23314;51.114;6.900;2023-08-17T11:16:10;101540.03;;;25.43
37452;BMP280;23314;51.114;6.900;2023-08-17T11:18:36;101541.53;;;25.44
37452;BMP280;23314;51.114;6.900;2023-08-17T11:21:03;101553.44;;;25.47
37452;BMP280;23314;51.114;6.900;2023-08-17T11:23:30;101546.00;;;25.47
37452;BMP280;23314;51.114;6.900;2023-08-17T11:25:56;101546.97;;;25.44
37452;BMP280;23314;51.114;6.900;2023-08-17T11:28:22;101545.47;;;25.32
37452;BMP280;23314;51.114;6.900;2023-08-17T11:30:57;101542.41;;;25.07
37452;BMP280;23314;51.114;6.900;2023-08-17T11:33:26;101548.56;;;24.91
37452;BMP280;23314;51.114;6.900;2023-08-17T11:35:55;101552.50;;;24.78
37452;BMP280;23314;51.114;6.900;2023-08-17T11:38:21;101546.75;;;24.71
37452;BMP280;23314;51.114;6.900;2023-08-17T11:40:47;101543.50;;;24.72
37452;BMP280;23314;51.114;6.900;2023-08-17T11:43:13;101542.78;;;24.72
37452;BMP280;23314;51.114;6.900;2023-08-17T11:45:39;101549.50;;;24.76
37452;BMP280;23314;51.114;6.900;2023-08-17T11:48:04;101552.50;;;24.84
37452;BMP280;23314;51.114;6.900;2023-08-17T11:50:30;101553.06;;;24.99
37452;BMP280;23314;51.114;6.900;2023-08-17T11:52:59;101547.88;;;25.07
37452;BMP280;23314;51.114;6.900;2023-08-17T11:55:24;101551.09;;;25.11
37452;BMP280;23314;51.114;6.900;2023-08-17T11:57:49;101546.16;;;25.15
37452;BMP280;23314;51.114;6.900;2023-08-17T12:00:21;101549.63;;;25.10
37452;BMP280;23314;51.114;6.900;2023-08-17T12:02:48;101546.41;;;25.06
37452;BMP280;23314;51.114;6.900;2023-08-17T12:05:21;101547.63;;;25.05
37452;BMP280;23314;51.114;6.900;2023-08-17T12:07:48;101553.56;;;25.03
37452;BMP280;23314;51.114;6.900;2023-08-17T12:10:14;101547.84;;;25.01
37452;BMP280;23314;51.114;6.900;2023-08-17T12:12:39;101550.56;;;24.96
37452;BMP280;23314;51.114;6.900;2023-08-17T12:15:05;101539.41;;;24.99
37452;BMP280;23314;51.114;6.900;2023-08-17T12:17:31;101544.94;;;25.16
37452;BMP280;23314;51.114;6.900;2023-08-17T12:19:58;101536.06;;;25.38
37452;BMP280;23314;51.114;6.900;2023-08-17T12:22:25;101537.56;;;25.62
37452;BMP280;23314;51.114;6.900;2023-08-17T12:24:51;101542.78;;;25.88
37452;BMP280;23314;51.114;6.900;2023-08-17T12:27:17;101538.28;;;26.08
37452;BMP280;23314;51.114;6.900;2023-08-17T12:29:51;101534.03;;;26.29
37452;BMP280;23314;51.114;6.900;2023-08-17T12:32:18;101535.47;;;26.47
37452;BMP280;23314;51.114;6.900;2023-08-17T12:34:43;101539.91;;;26.62
37452;BMP280;23314;51.114;6.900;2023-08-17T12:37:09;101540.09;;;26.75
37452;BMP280;23314;51.114;6.900;2023-08-17T12:39:35;101530.34;;;26.91
37452;BMP280;23314;51.114;6.900;2023-08-17T12:42:01;101527.03;;;26.98
37452;BMP280;23314;51.114;6.900;2023-08-17T12:44:27;101523.75;;;27.05
37452;BMP280;23314;51.114;6.900;2023-08-17T12:46:52;101526.44;;;27.17
37452;BMP280;23314;51.114;6.900;2023-08-17T12:49:18;101519.84;;;27.31
37452;BMP280;23314;51.114;6.900;2023-08-17T12:51:43;101529.50;;;27.44
37452;BMP280;23314;51.114;6.900;2023-08-17T12:54:09;101528.84;;;27.62
37452;BMP280;23314;51.114;6.900;2023-08-17T12:56:34;101531.47;;;27.79
37452;BMP280;23314;51.114;6.900;2023-08-17T12:58:59;101530.69;;;28.03
37452;BMP280;23314;51.114;6.900;2023-08-17T13:01:25;101529.81;;;28.39
37452;BMP280;23314;51.114;6.900;2023-08-17T13:03:50;101520.31;;;28.59
37452;BMP280;23314;51.114;6.900;2023-08-17T13:06:15;101525.44;;;28.68
37452;BMP280;23314;51.114;6.900;2023-08-17T13:08:40;101526.03;;;28.80
37452;BMP280;23314;51.114;6.900;2023-08-17T13:11:06;101518.78;;;28.82
37452;BMP280;23314;51.114;6.900;2023-08-17T13:13:31;101526.00;;;28.99
37452;BMP280;23314;51.114;6.900;2023-08-17T13:15:56;101519.22;;;29.19
37452;BMP280;23314;51.114;6.900;2023-08-17T13:18:22;101520.72;;;29.33
37452;BMP280;23314;51.114;6.900;2023-08-17T13:20:47;101517.13;;;29.38
37452;BMP280;23314;51.114;6.900;2023-08-17T13:23:12;101522.31;;;29.42
37452;BMP280;23314;51.114;6.900;2023-08-17T13:25:38;101527.56;;;29.27
37452;BMP280;23314;51.114;6.900;2023-08-17T13:28:04;101520.13;;;29.08
37452;BMP280;23314;51.114;6.900;2023-08-17T13:30:29;101519.41;;;29.08
37452;BMP280;23314;51.114;6.900;2023-08-17T13:32:55;101528.88;;;29.06
37452;BMP280;23314;51.114;6.900;2023-08-17T13:35:21;101520.59;;;28.93
37452;BMP280;23314;51.114;6.900;2023-08-17T13:37:51;101514.16;;;28.72
37452;BMP280;23314;51.114;6.900;2023-08-17T13:40:16;101510.97;;;28.48
37452;BMP280;23314;51.114;6.900;2023-08-17T13:42:41;101521.06;;;28.40
37452;BMP280;23314;51.114;6.900;2023-08-17T13:45:07;101515.81;;;28.42
37452;BMP280;23314;51.114;6.900;2023-08-17T13:47:32;101517.19;;;28.49
37452;BMP280;23314;51.114;6.900;2023-08-17T13:49:58;101508.88;;;28.36
37452;BMP280;23314;51.114;6.900;2023-08-17T13:52:23;101506.06;;;28.22
37452;BMP280;23314;51.114;6.900;2023-08-17T13:54:49;101509.09;;;28.19